Time;durP1;ratioP1;P1;durP2;ratioP2;P2;SDS_P1;SDS_P2;PMS_P1;PMS_P2;Temp;Humidity;BMP_temperature;BMP_pressure;BME280_temperature;BME280_humidity;BME280_pressure;Samples;Min_cycle;Max_cycle;Signal;HPM_P1;HPM_P2
2022/11/22 00:01:26;;;;;;;13.13;8.70;;;;;;;-6.13;96.81;101847.81;5098320;28;20020;-76
2022/11/22 00:03:51;;;;;;;9.90;7.47;;;;;;;-6.13;96.84;101843.47;5110049;28;20040;-77
2022/11/22 00:06:17;;;;;;;12.63;8.40;;;;;;;-6.14;96.36;101821.03;5111803;28;20013;-74
2022/11/22 00:08:42;;;;;;;11.93;8.20;;;;;;;-6.06;96.14;101837.31;5090686;28;20027;-74
2022/11/22 00:11:08;;;;;;;9.00;7.30;;;;;;;-6.01;96.42;101840.66;5101114;28;20035;-77
2022/11/22 00:13:33;;;;;;;13.67;8.53;;;;;;;-5.95;96.34;101842.28;5094616;28;20107;-78
2022/11/22 00:16:00;;;;;;;9.63;7.47;;;;;;;-5.93;96.27;101846.53;5094827;28;20110;-77
2022/11/22 00:18:27;;;;;;;11.25;7.95;;;;;;;-5.98;95.54;101847.53;5094702;28;20028;-74
2022/11/22 00:20:53;;;;;;;10.57;7.88;;;;;;;-6.05;95.84;101846.81;5094604;28;20052;-76
2022/11/22 00:23:18;;;;;;;13.97;8.87;;;;;;;-6.10;95.91;101843.41;5095071;28;20032;-74
2022/11/22 00:25:44;;;;;;;9.57;8.07;;;;;;;-6.31;96.38;101849.91;5076226;28;20024;-75
2022/11/22 00:28:10;;;;;;;11.43;7.82;;;;;;;-6.25;96.48;101842.00;5094073;28;20032;-73
2022/11/22 00:30:35;;;;;;;12.60;9.77;;;;;;;-6.29;97.18;101852.47;5075919;28;20036;-74
2022/11/22 00:33:01;;;;;;;10.67;7.93;;;;;;;-6.38;97.14;101824.09;5075849;28;20024;-75
2022/11/22 00:35:26;;;;;;;11.43;8.67;;;;;;;-6.17;97.02;101856.53;5094085;28;20020;-73
2022/11/22 00:37:52;;;;;;;11.83;7.63;;;;;;;-6.32;96.85;101837.81;5075848;28;20032;-74
2022/11/22 00:40:17;;;;;;;12.03;7.67;;;;;;;-6.37;97.32;101829.25;5093691;28;20452;-77
2022/11/22 00:42:43;;;;;;;11.13;8.07;;;;;;;-6.38;98.31;101832.72;5075805;28;20028;-76
2022/11/22 00:45:09;;;;;;;10.80;7.17;;;;;;;-6.33;98.10;101832.66;5094033;28;20027;-76
2022/11/22 00:47:35;;;;;;;10.48;8.77;;;;;;;-6.16;98.20;101846.13;5095334;28;20020;-76
2022/11/22 00:50:00;;;;;;;14.57;8.53;;;;;;;-6.15;96.94;101842.66;5094532;28;20359;-74
2022/11/22 00:52:26;;;;;;;9.57;8.20;;;;;;;-6.23;97.10;101847.16;5094458;28;20079;-73
2022/11/22 00:54:52;;;;;;;9.30;7.60;;;;;;;-6.27;96.93;101845.50;5095464;28;20024;-76
2022/11/22 00:57:17;;;;;;;13.40;9.17;;;;;;;-6.42;96.94;101835.41;5078788;28;20034;-75
2022/11/22 00:59:43;;;;;;;10.50;7.53;;;;;;;-6.40;98.00;101849.19;5097877;28;20032;-75
2022/11/22 01:02:08;;;;;;;18.37;9.63;;;;;;;-6.50;97.49;101847.66;5093244;28;20028;-74
2022/11/22 01:04:34;;;;;;;14.00;8.70;;;;;;;-6.52;97.55;101859.78;5093532;28;20047;-74
2022/11/22 01:07:00;;;;;;;11.93;8.30;;;;;;;-6.57;98.12;101850.38;5093647;28;20131;-76
2022/11/22 01:09:25;;;;;;;11.97;8.70;;;;;;;-6.56;97.98;101849.50;5094145;28;20020;-76
2022/11/22 01:11:51;;;;;;;9.47;7.93;;;;;;;-6.58;97.52;101840.03;5095888;28;20024;-76
2022/11/22 01:14:17;;;;;;;7.90;7.03;;;;;;;-6.67;97.46;101850.53;5097981;28;20467;-75
2022/11/22 01:28:54;;;;;;;10.10;7.03;;;;;;;-6.88;96.75;101828.47;4997784;28;20409;-75
2022/11/22 01:31:21;;;;;;;10.40;8.02;;;;;;;-6.92;97.81;101850.97;4974978;28;20030;-75
2022/11/22 01:33:52;;;;;;;9.53;7.37;;;;;;;-7.01;98.18;101835.56;4989818;28;20027;-75
2022/11/22 01:37:22;;;;;;;8.38;6.65;;;;;;;-6.80;98.53;101834.38;4960739;28;20120;-76
2022/11/22 01:51:05;;;;;;;10.50;7.05;;;;;;;-7.10;96.86;101783.09;4913760;29;20032;-75
2022/11/22 01:53:36;;;;;;;9.13;6.63;;;;;;;-6.74;97.05;101823.91;4939099;28;20037;-74
2022/11/22 01:56:05;;;;;;;9.13;6.97;;;;;;;-6.74;96.46;101802.31;5066259;28;20029;-75
2022/11/22 01:58:33;;;;;;;12.57;7.35;;;;;;;-6.67;96.19;101828.06;5072817;28;20457;-75
2022/11/22 02:01:00;;;;;;;11.95;8.27;;;;;;;-6.68;96.07;101820.34;5055207;28;20035;-75
2022/11/22 02:03:27;;;;;;;12.23;7.72;;;;;;;-6.69;96.01;101814.28;5075710;28;20060;-75
2022/11/22 02:06:01;;;;;;;10.05;8.02;;;;;;;-6.87;96.62;101799.09;5094558;28;20028;-74
2022/11/22 02:08:37;;;;;;;13.05;8.65;;;;;;;-6.85;96.70;101807.69;5088832;28;20031;-77
2022/11/22 02:11:03;;;;;;;11.35;7.22;;;;;;;-6.72;96.84;101818.69;5073482;28;20032;-76
2022/11/22 02:13:33;;;;;;;10.45;8.63;;;;;;;-6.75;95.25;101817.00;5072554;28;20034;-74
2022/11/22 02:16:19;;;;;;;10.85;7.30;;;;;;;-6.82;95.67;101810.22;5057303;28;20488;-73
2022/11/22 02:18:47;;;;;;;12.70;8.48;;;;;;;-6.84;95.29;101817.19;5071786;28;20036;-74
2022/11/22 02:21:13;;;;;;;12.13;8.27;;;;;;;-6.87;95.50;101822.41;5071755;28;20553;-77
2022/11/22 02:23:57;;;;;;;9.27;7.60;;;;;;;-6.86;96.20;101824.13;5072599;28;20036;-75
2022/11/22 02:26:26;;;;;;;8.85;6.40;;;;;;;-6.76;96.02;101817.03;5072516;28;20032;-76
2022/11/22 02:28:59;;;;;;;10.05;6.88;;;;;;;-6.82;94.99;101799.88;5083069;28;20044;-77
2022/11/22 02:31:36;;;;;;;12.88;8.18;;;;;;;-6.78;94.95;101811.03;5093522;28;20055;-75
2022/11/22 02:34:02;;;;;;;12.38;7.90;;;;;;;-6.94;95.74;101806.13;5094111;28;20038;-75
2022/11/22 02:36:32;;;;;;;11.30;7.60;;;;;;;-6.96;95.51;101797.50;5093274;28;20020;-74
2022/11/22 02:39:01;;;;;;;10.90;8.18;;;;;;;-6.95;95.86;101803.53;5093737;28;20027;-75
2022/11/22 02:41:26;;;;;;;;;;;;;;;-6.94;95.03;101819.06;5101553;28;20024;-77
2022/11/22 02:43:52;;;;;;;9.20;7.27;;;;;;;-7.15;95.76;101801.31;5103795;28;19918;-76
2022/11/22 02:46:20;;;;;;;8.83;7.47;;;;;;;-7.07;96.06;101816.69;5087596;28;20375;-76
2022/11/22 02:48:46;;;;;;;8.52;7.13;;;;;;;-7.10;96.03;101809.84;5106834;28;20032;-74
2022/11/22 02:51:15;;;;;;;9.70;7.17;;;;;;;-7.08;96.43;101809.81;5104528;28;20119;-76
2022/11/22 02:53:45;;;;;;;10.73;7.85;;;;;;;-7.04;96.35;101799.38;5105888;28;20031;-76
2022/11/22 03:00:39;;;;;;;9.50;6.85;;;;;;;-7.01;96.64;101809.69;5103835;28;20482;-77
2022/11/22 03:03:05;;;;;;;13.23;9.18;;;;;;;-7.03;96.22;101793.31;5096833;28;20035;-76
2022/11/22 03:05:31;;;;;;;12.97;8.47;;;;;;;-6.94;95.90;101811.31;5096287;28;20027;-76
2022/11/22 03:07:56;;;;;;;14.07;9.33;;;;;;;-6.97;96.39;101807.88;5077473;28;20475;-78
2022/11/22 03:10:22;;;;;;;13.80;9.50;;;;;;;-7.02;96.60;101789.00;5077555;28;20463;-76
2022/11/22 03:12:47;;;;;;;11.67;9.00;;;;;;;-6.97;96.20;101794.94;5095670;28;20070;-76
2022/11/22 03:15:13;;;;;;;12.40;8.40;;;;;;;-6.88;96.41;101811.19;5095715;28;20045;-76
2022/11/22 03:17:39;;;;;;;12.30;9.20;;;;;;;-6.89;96.46;101798.28;5095467;28;20024;-76
2022/11/22 03:20:05;;;;;;;12.03;8.13;;;;;;;-6.80;96.51;101802.44;5095441;28;20036;-77
2022/11/22 03:22:30;;;;;;;10.93;8.07;;;;;;;-6.89;96.21;101777.56;5095643;28;20078;-76
2022/11/22 03:24:56;;;;;;;16.70;8.70;;;;;;;-6.69;95.92;101790.13;5095561;28;20403;-76
2022/11/22 03:27:21;;;;;;;12.40;8.70;;;;;;;-6.79;95.30;101766.13;5096273;28;20134;-77
2022/11/22 03:29:47;;;;;;;12.40;8.57;;;;;;;-6.88;95.39;101768.91;5062963;28;20044;-76
2022/11/22 03:32:12;;;;;;;9.47;7.50;;;;;;;-6.74;95.75;101769.50;5095841;28;20040;-76
2022/11/22 03:34:38;;;;;;;11.93;8.33;;;;;;;-6.70;95.47;101770.28;5100653;28;20020;-77
2022/11/22 03:37:04;;;;;;;14.83;8.87;;;;;;;-6.63;95.56;101757.22;5106733;28;20614;-75
2022/11/22 03:39:29;;;;;;;19.57;10.63;;;;;;;-6.66;95.00;101749.47;5110874;28;20036;-76
2022/11/22 03:41:55;;;;;;;9.90;8.03;;;;;;;-6.71;95.33;101761.66;5099817;28;20039;-75
2022/11/22 03:44:21;;;;;;;14.00;8.37;;;;;;;-6.65;95.86;101750.31;5094523;28;20039;-78
2022/11/22 03:46:47;;;;;;;12.35;9.25;;;;;;;-6.57;94.81;101741.53;5109613;28;20032;-75
2022/11/22 03:49:13;;;;;;;12.73;8.37;;;;;;;-6.44;94.95;101759.44;5107710;28;20074;-76
2022/11/22 03:51:38;;;;;;;14.20;9.57;;;;;;;-6.37;94.66;101761.84;5102867;28;20024;-76
2022/11/22 03:54:04;;;;;;;15.23;9.43;;;;;;;-6.43;94.74;101741.25;5117076;28;20008;-76
2022/11/22 03:56:30;;;;;;;15.37;9.63;;;;;;;-6.41;94.90;101746.41;5114476;28;20119;-79
2022/11/22 04:03:15;;;;;;;13.30;8.43;;;;;;;-6.43;94.79;101704.13;5054817;28;20106;-76
2022/11/22 04:05:40;;;;;;;13.13;8.75;;;;;;;-6.26;94.72;101733.16;5051200;28;20017;-73
2022/11/22 04:08:22;;;;;;;13.40;8.93;;;;;;;-6.24;94.89;101739.16;5081536;28;20039;-76
2022/11/22 04:10:48;;;;;;;13.55;8.82;;;;;;;-6.22;94.87;101734.78;5092591;28;20036;-75
2022/11/22 04:17:05;;;;;;;16.35;10.35;;;;;;;-6.35;95.01;101702.25;5033195;28;20392;-74
2022/11/22 04:19:30;;;;;;;17.23;10.80;;;;;;;-6.11;95.17;101731.94;5096739;28;20028;-74
2022/11/22 04:21:56;;;;;;;20.83;10.50;;;;;;;-6.08;95.18;101732.72;5095683;28;20416;-74
2022/11/22 04:27:09;;;;;;;14.98;9.07;;;;;;;-5.98;94.71;101728.22;5094856;28;20027;-72
2022/11/22 04:29:38;;;;;;;15.60;10.85;;;;;;;-5.95;94.83;101715.19;5095944;28;20047;-73
2022/11/22 04:34:47;;;;;;;17.20;10.40;;;;;;;-6.06;95.37;101720.63;5094706;28;20013;-76
2022/11/22 04:37:12;;;;;;;15.13;10.33;;;;;;;-6.09;95.43;101724.97;5094423;28;20028;-72
2022/11/22 04:39:38;;;;;;;14.27;9.17;;;;;;;-6.04;95.47;101726.63;5093866;28;20114;-75
2022/11/22 04:44:55;;;;;;;13.30;9.10;;;;;;;-6.03;95.03;101725.72;5093701;28;20051;-77
2022/11/22 04:52:52;;;;;;;18.52;9.60;;;;;;;-6.14;95.25;101725.09;5093778;28;20103;-74
2022/11/22 04:52:54;;;;;;;16.60;8.90;;;;;;;-6.08;95.41;101719.75;5094163;28;20024;-75
2022/11/22 04:55:22;;;;;;;14.93;10.20;;;;;;;-6.12;95.40;101718.13;5093032;28;20169;-73
2022/11/22 04:58:28;;;;;;;13.32;8.63;;;;;;;-6.03;95.45;101714.50;5093753;28;20048;-78
2022/11/22 05:00:54;;;;;;;14.68;10.98;;;;;;;-6.19;95.48;101703.59;5093883;28;20028;-80
2022/11/22 05:03:20;;;;;;;13.87;9.17;;;;;;;-6.12;96.17;101710.34;5057767;28;20447;-72
2022/11/22 05:05:45;;;;;;;15.87;10.50;;;;;;;-6.16;95.93;101708.72;5094447;28;20051;-76
2022/11/22 05:08:12;;;;;;;14.50;9.20;;;;;;;-6.11;96.21;101703.44;5117342;28;20093;-76
2022/11/22 05:10:56;;;;;;;16.23;10.80;;;;;;;-6.10;96.23;101700.78;5108948;28;20474;-75
2022/11/22 05:13:28;;;;;;;13.40;8.80;;;;;;;-5.96;96.18;101692.72;5098422;28;20024;-73
2022/11/22 05:15:55;;;;;;;18.85;9.30;;;;;;;-5.94;95.57;101696.97;5076777;28;20020;-75
2022/11/22 05:18:22;;;;;;;16.58;11.60;;;;;;;-5.94;95.88;101701.31;5093681;28;20511;-74
2022/11/22 05:20:48;;;;;;;16.65;10.73;;;;;;;-5.96;96.44;101696.16;5094598;28;20039;-74
2022/11/22 05:26:10;;;;;;;12.45;8.57;;;;;;;-6.11;96.34;101665.38;5093053;28;20284;-74
2022/11/22 05:28:38;;;;;;;16.77;11.37;;;;;;;-6.01;96.95;101684.19;5075169;28;20047;-76
2022/11/22 05:31:57;;;;;;;11.90;8.40;;;;;;;-5.90;96.47;101696.91;5090889;28;20036;-74
2022/11/22 05:34:27;;;;;;;12.43;9.70;;;;;;;-6.47;97.57;101624.72;5092867;28;20028;-74
2022/11/22 05:36:52;;;;;;;14.13;9.40;;;;;;;-6.05;97.57;101693.78;5092737;28;20122;-77
2022/11/22 05:39:18;;;;;;;12.93;7.87;;;;;;;-5.99;97.77;101679.81;5074881;28;20135;-75
2022/11/22 05:41:54;;;;;;;13.83;9.20;;;;;;;-5.94;97.70;101683.16;5092927;28;20028;-75
2022/11/22 05:44:23;;;;;;;11.80;8.05;;;;;;;-5.95;97.88;101678.88;5092862;28;20028;-75
2022/11/22 05:46:49;;;;;;;;;;;;;;;-5.84;97.35;101686.34;5093652;28;20031;-76
2022/11/22 05:49:14;;;;;;;12.23;8.93;;;;;;;-5.89;97.98;101688.25;5092961;28;19972;-78
2022/11/22 05:51:40;;;;;;;15.17;9.17;;;;;;;-5.87;98.81;101692.47;5099266;28;20024;-70
2022/11/22 05:54:05;;;;;;;15.07;8.30;;;;;;;-5.90;98.63;101686.53;5100360;28;20359;-73
2022/11/22 05:56:31;;;;;;;13.20;9.23;;;;;;;-5.84;98.42;101692.38;5101086;28;20028;-75
2022/11/22 05:58:56;;;;;;;11.27;8.03;;;;;;;-5.74;98.61;101680.94;5098823;28;20078;-73
2022/11/22 06:01:23;;;;;;;10.67;7.47;;;;;;;-5.61;97.91;101687.50;5092535;28;20039;-75
2022/11/22 06:03:50;;;;;;;11.77;7.60;;;;;;;-5.62;97.13;101690.16;5092598;28;20034;-75
2022/11/22 06:06:23;;;;;;;13.23;8.63;;;;;;;-5.75;97.77;101687.00;5092364;28;20028;-73
2022/11/22 06:08:51;;;;;;;10.60;7.68;;;;;;;-5.72;98.41;101678.28;5092799;28;20078;-72
2022/11/22 06:11:22;;;;;;;13.30;8.17;;;;;;;-5.60;97.67;101685.78;5076462;28;20382;-71
2022/11/22 06:13:50;;;;;;;10.63;8.32;;;;;;;-5.66;97.65;101689.38;5097906;28;20032;-72
2022/11/22 06:16:18;;;;;;;13.45;9.70;;;;;;;-5.63;97.87;101691.03;5080132;28;20115;-74
2022/11/22 06:18:49;;;;;;;11.43;8.05;;;;;;;-5.59;98.52;101690.06;5099810;28;20058;-72
2022/11/22 06:21:22;;;;;;;12.10;7.60;;;;;;;-5.61;98.37;101684.91;5102397;28;20047;-74
2022/11/22 06:23:47;;;;;;;12.30;6.97;;;;;;;-5.50;98.34;101687.25;5094111;28;20352;-74
2022/11/22 06:26:16;;;;;;;12.67;8.33;;;;;;;-5.35;97.89;101686.88;5092242;28;20042;-73
2022/11/22 06:28:43;;;;;;;13.32;7.82;;;;;;;-5.31;96.94;101690.22;5092286;28;20040;-75
2022/11/22 06:31:18;;;;;;;11.98;8.95;;;;;;;-5.23;97.81;101685.69;5073996;28;20044;-73
2022/11/22 06:33:44;;;;;;;11.80;8.07;;;;;;;-5.21;96.82;101690.84;5091624;28;20122;-74
2022/11/22 06:36:15;;;;;;;11.15;7.93;;;;;;;-5.38;96.97;101666.19;5092337;28;20054;-73
2022/11/22 06:38:47;;;;;;;9.75;7.75;;;;;;;-5.27;97.33;101680.63;5092304;28;20036;-72
2022/11/22 06:41:19;;;;;;;11.68;8.25;;;;;;;-5.27;98.36;101681.47;5091033;28;20031;-73
2022/11/22 06:43:48;;;;;;;9.80;7.38;;;;;;;-5.28;97.76;101676.31;5092075;28;20371;-74
2022/11/22 06:46:14;;;;;;;11.52;7.70;;;;;;;-5.37;98.23;101670.47;5092408;28;20083;-74
2022/11/22 06:48:41;;;;;;;11.60;7.93;;;;;;;-5.24;98.21;101680.53;5092457;28;20070;-74
2022/11/22 06:51:13;;;;;;;13.55;7.85;;;;;;;-5.21;98.38;101672.66;5091989;28;20028;-74
2022/11/22 06:53:39;;;;;;;13.55;7.93;;;;;;;-5.12;98.23;101685.44;5092525;28;20032;-72
2022/11/22 06:56:10;;;;;;;12.60;7.20;;;;;;;-5.11;97.67;101674.16;5100911;28;20028;-72
2022/11/22 06:58:37;;;;;;;16.70;8.52;;;;;;;-5.10;98.01;101679.28;5098443;28;20081;-74
2022/11/22 07:01:07;;;;;;;14.48;9.23;;;;;;;-5.09;97.88;101681.00;5095659;28;20032;-73
2022/11/22 07:03:37;;;;;;;17.20;9.50;;;;;;;-5.20;98.16;101646.69;5093355;28;20468;-73
2022/11/22 07:06:04;;;;;;;15.82;9.70;;;;;;;-5.07;98.15;101667.97;5091785;28;20038;-73
2022/11/22 07:08:30;;;;;;;11.05;8.23;;;;;;;-5.00;98.17;101670.34;5073547;28;20394;-72
2022/11/22 07:11:09;;;;;;;25.15;11.20;;;;;;;-4.96;97.96;101668.53;5091842;28;20056;-74
2022/11/22 07:13:35;;;;;;;18.92;10.52;;;;;;;-4.93;97.89;101665.84;5092438;28;20031;-73
2022/11/22 07:16:04;;;;;;;18.77;9.10;;;;;;;-4.90;97.76;101670.97;5092025;28;20028;-72
2022/11/22 07:18:31;;;;;;;15.23;9.77;;;;;;;-4.84;97.61;101656.97;5091894;28;20599;-73
2022/11/22 07:21:11;;;;;;;16.58;10.07;;;;;;;-4.85;98.04;101660.44;5091720;28;20032;-72
2022/11/22 07:23:40;;;;;;;21.05;12.50;;;;;;;-4.85;97.55;101658.69;5092132;28;20096;-73
2022/11/22 07:26:09;;;;;;;18.52;11.30;;;;;;;-4.90;97.78;101654.53;5095217;28;20036;-72
2022/11/22 07:28:37;;;;;;;22.17;11.95;;;;;;;-5.02;98.19;101630.56;5098329;28;20087;-72
2022/11/22 07:31:05;;;;;;;18.70;10.60;;;;;;;-4.81;98.51;101655.13;5098748;28;20043;-72
2022/11/22 07:33:31;;;;;;;29.83;11.00;;;;;;;-4.71;97.75;101658.31;5080649;28;20043;-73
2022/11/22 07:36:05;;;;;;;23.27;12.30;;;;;;;-4.70;98.01;101657.41;5098414;28;20447;-72
2022/11/22 07:38:31;;;;;;;25.65;14.15;;;;;;;-5.05;97.48;101611.63;5098637;28;20031;-72
2022/11/22 07:40:56;;;;;;;21.70;11.60;;;;;;;-5.05;97.28;101599.50;5097662;28;20475;-72
2022/11/22 07:43:22;;;;;;;23.70;11.70;;;;;;;-4.70;97.21;101653.06;5097584;28;20197;-73
2022/11/22 07:45:47;;;;;;;19.53;11.37;;;;;;;-4.68;98.23;101659.06;5098914;28;20020;-73
2022/11/22 07:48:13;;;;;;;25.67;13.27;;;;;;;-4.62;97.99;101662.41;5096003;28;20020;-72
2022/11/22 07:50:40;;;;;;;30.58;12.75;;;;;;;-4.67;97.08;101663.34;5095394;28;20410;-74
2022/11/22 07:53:07;;;;;;;21.63;11.93;;;;;;;-4.65;97.85;101665.06;5094904;28;20543;-72
2022/11/22 07:55:33;;;;;;;26.95;11.95;;;;;;;-4.67;97.89;101652.13;5096026;28;20028;-74
2022/11/22 07:57:59;;;;;;;19.23;12.33;;;;;;;-4.67;97.90;101658.16;5095631;28;20035;-72
2022/11/22 08:00:25;;;;;;;17.80;12.97;;;;;;;-4.63;98.24;101658.91;5094670;28;20027;-73
2022/11/22 08:02:51;;;;;;;22.70;11.70;;;;;;;-4.52;98.24;101661.22;5094752;28;20032;-72
2022/11/22 08:05:16;;;;;;;25.83;14.43;;;;;;;-4.51;97.61;101663.78;5095830;28;20039;-73
2022/11/22 08:07:50;;;;;;;22.13;12.70;;;;;;;-4.50;97.99;101664.63;5089740;28;20028;-73
2022/11/22 08:10:16;;;;;;;23.50;11.77;;;;;;;-4.49;98.01;101655.94;5108578;28;20032;-75
2022/11/22 08:12:46;;;;;;;23.63;12.85;;;;;;;-4.44;97.12;101657.50;5108031;28;20067;-72
2022/11/22 08:15:17;;;;;;;26.33;13.48;;;;;;;-4.34;97.28;101662.41;5091186;28;20447;-71
2022/11/22 08:17:46;;;;;;;23.42;13.20;;;;;;;-4.38;96.95;101656.47;5110422;28;20046;-74
2022/11/22 08:20:12;;;;;;;29.35;15.18;;;;;;;-4.40;97.55;101663.47;5089069;28;20535;-73
2022/11/22 08:22:41;;;;;;;23.47;12.67;;;;;;;-4.37;97.48;101665.97;5071681;28;20052;-73
2022/11/22 08:25:11;;;;;;;27.92;14.20;;;;;;;-4.29;98.12;101652.75;5106330;28;20459;-73
2022/11/22 08:27:41;;;;;;;27.38;12.98;;;;;;;-4.30;97.05;101645.84;5067883;28;20036;-73
2022/11/22 08:30:18;;;;;;;20.73;12.77;;;;;;;-4.18;97.74;101661.06;5084661;28;20055;-74
2022/11/22 08:32:43;;;;;;;22.10;12.00;;;;;;;-4.21;97.13;101649.00;5105246;28;20035;-73
2022/11/22 08:35:11;;;;;;;22.70;12.77;;;;;;;-4.29;96.85;101643.19;5101762;28;20028;-73
2022/11/22 08:37:40;;;;;;;24.17;11.85;;;;;;;-4.32;97.21;101640.69;5078447;28;20024;-72
2022/11/22 08:40:07;;;;;;;22.17;11.60;;;;;;;-4.18;97.26;101645.47;5075636;28;20074;-72
2022/11/22 08:42:32;;;;;;;22.73;11.85;;;;;;;-4.13;97.15;101643.56;5093676;28;20024;-72
2022/11/22 08:44:58;;;;;;;22.47;12.40;;;;;;;-4.08;97.29;101642.53;5093833;28;20023;-72
2022/11/22 08:47:23;;;;;;;25.03;14.27;;;;;;;-4.07;96.54;101639.00;5058816;28;20418;-72
2022/11/22 08:49:49;;;;;;;23.03;11.53;;;;;;;-4.06;96.60;101640.72;5093847;28;20035;-73
2022/11/22 08:52:14;;;;;;;20.87;11.60;;;;;;;-3.98;96.47;101637.03;5093534;28;20437;-73
2022/11/22 08:54:40;;;;;;;24.97;14.83;;;;;;;-3.93;96.73;101636.00;5093433;28;20413;-72
2022/11/22 08:57:05;;;;;;;23.00;12.47;;;;;;;-3.91;96.78;101639.41;5093342;28;20070;-74
2022/11/22 08:59:31;;;;;;;23.13;11.33;;;;;;;-3.88;96.63;101643.66;5093488;28;20032;-74
2022/11/22 09:01:56;;;;;;;21.67;12.50;;;;;;;-3.84;96.66;101633.09;5093614;28;20020;-74
2022/11/22 09:04:22;;;;;;;25.70;12.23;;;;;;;-3.91;96.24;101618.56;5075261;28;20028;-73
2022/11/22 09:06:48;;;;;;;23.30;11.73;;;;;;;-3.85;96.50;101617.53;5093333;28;20114;-73
2022/11/22 09:09:13;;;;;;;21.00;11.67;;;;;;;-3.86;96.77;101615.81;5075120;28;20043;-73
2022/11/22 09:11:38;;;;;;;21.30;10.43;;;;;;;-3.83;96.86;101620.91;5093001;28;20077;-72
2022/11/22 09:14:29;;;;;;;19.70;10.93;;;;;;;-3.80;96.86;101620.81;5079018;28;20098;-74
2022/11/22 09:16:56;;;;;;;19.05;11.15;;;;;;;-3.73;96.84;101627.56;5092827;28;20072;-74
2022/11/22 09:19:22;;;;;;;19.50;11.40;;;;;;;-3.68;96.10;101615.22;5093103;28;20432;-74
2022/11/22 09:21:47;;;;;;;17.60;9.77;;;;;;;-3.60;96.74;101631.44;5092706;28;20048;-74
2022/11/22 09:24:13;;;;;;;19.10;10.83;;;;;;;-3.62;95.93;101622.81;5092694;28;20073;-72
2022/11/22 09:26:41;;;;;;;21.30;12.50;;;;;;;-3.60;96.26;101618.41;5093000;28;20032;-72
2022/11/22 09:29:07;;;;;;;18.65;9.73;;;;;;;-3.78;95.81;101587.78;5092830;28;20044;-73
2022/11/22 09:31:34;;;;;;;22.40;9.93;;;;;;;-3.66;95.89;101608.22;5092966;28;20032;-72
2022/11/22 09:33:59;;;;;;;20.88;11.23;;;;;;;-3.64;96.26;101606.41;5075768;28;20369;-71
2022/11/22 09:36:25;;;;;;;16.63;9.80;;;;;;;-3.63;96.93;101610.72;5092864;28;20032;-72
2022/11/22 09:38:52;;;;;;;18.73;10.20;;;;;;;-3.72;96.80;101587.59;5074400;28;20106;-75
2022/11/22 09:42:03;;;;;;;21.92;11.57;;;;;;;-3.62;97.46;101596.78;5092721;28;20113;-72
2022/11/22 09:45:06;;;;;;;22.77;10.32;;;;;;;-3.53;97.17;101593.88;5092917;28;20468;-73
2022/11/22 09:47:38;;;;;;;26.58;11.27;;;;;;;-3.50;96.63;101601.56;5092609;28;20139;-74
2022/11/22 09:50:21;;;;;;;19.00;10.38;;;;;;;-3.53;96.42;101598.22;5093064;28;20032;-73
2022/11/22 09:52:50;;;;;;;17.30;9.27;;;;;;;-3.53;96.59;101593.00;5093146;28;20024;-73
2022/11/22 09:55:34;;;;;;;20.00;11.15;;;;;;;-3.56;97.41;101593.97;5092467;28;20024;-73
2022/11/22 09:58:21;;;;;;;14.57;7.75;;;;;;;-3.60;97.42;101576.75;5092769;28;20146;-72
2022/11/22 10:00:47;;;;;;;17.58;8.95;;;;;;;-3.51;96.48;101581.63;5092805;28;20032;-74
2022/11/22 10:03:27;;;;;;;19.67;8.73;;;;;;;-3.48;96.72;101575.47;5074422;28;20035;-72
2022/11/22 10:05:57;;;;;;;18.27;9.02;;;;;;;-3.41;96.60;101570.94;5093902;28;20111;-73
2022/11/22 10:08:40;;;;;;;16.55;9.70;;;;;;;-3.39;96.29;101574.31;5094730;28;20035;-73
2022/11/22 10:11:50;;;;;;;19.67;9.15;;;;;;;-3.35;97.03;101576.75;5094691;28;20028;-73
2022/11/22 10:14:54;;;;;;;23.30;12.07;;;;;;;-3.30;96.55;101574.00;5046225;28;20058;-73
2022/11/22 10:17:35;;;;;;;15.77;10.13;;;;;;;-3.48;96.25;101542.47;5075118;28;20028;-72
2022/11/22 10:20:17;;;;;;;15.55;8.18;;;;;;;-3.34;96.63;101565.44;5092705;28;20122;-72
2022/11/22 10:22:43;;;;;;;16.83;9.32;;;;;;;-3.56;96.68;101528.88;5092981;28;20036;-72
2022/11/22 10:25:34;;;;;;;16.60;8.47;;;;;;;-3.35;96.60;101549.88;5092332;28;20024;-73
2022/11/22 10:28:12;;;;;;;15.45;9.00;;;;;;;-3.28;97.01;101553.94;5058014;28;20450;-74
2022/11/22 10:30:51;;;;;;;18.05;10.00;;;;;;;-3.25;97.00;101546.88;5093283;28;20043;-73
2022/11/22 10:33:29;;;;;;;16.92;10.27;;;;;;;-3.12;97.15;101553.34;5096846;28;20086;-72
2022/11/22 10:36:03;;;;;;;18.20;9.15;;;;;;;-3.03;96.23;101559.97;5093560;28;20024;-72
2022/11/22 10:38:48;;;;;;;18.15;8.93;;;;;;;-3.04;96.52;101552.22;5092076;28;20040;-74
2022/11/22 10:41:35;;;;;;;11.77;8.45;;;;;;;-3.10;96.74;101561.09;5093977;28;20039;-73
2022/11/22 10:44:19;;;;;;;20.73;10.70;;;;;;;-3.09;96.71;101560.19;5074079;28;20028;-72
2022/11/22 10:47:10;;;;;;;13.75;9.57;;;;;;;-3.05;96.94;101559.19;5092012;28;20096;-75
2022/11/22 10:49:51;;;;;;;14.90;9.43;;;;;;;-3.00;96.74;101562.44;5053560;28;20036;-73
2022/11/22 10:52:29;;;;;;;21.05;11.77;;;;;;;-2.98;96.33;101545.00;5091945;28;20043;-71
2022/11/22 10:55:04;;;;;;;18.40;9.07;;;;;;;-3.02;96.62;101559.06;5092197;28;20031;-74
2022/11/22 10:57:50;;;;;;;20.58;9.95;;;;;;;-2.97;96.43;101544.09;5092189;28;20067;-74
2022/11/22 11:00:23;;;;;;;18.80;10.48;;;;;;;-2.98;96.62;101542.41;5073830;28;20548;-72
2022/11/22 11:02:58;;;;;;;15.27;9.30;;;;;;;-2.97;95.89;101546.69;5094578;28;20031;-72
2022/11/22 11:05:46;;;;;;;12.18;7.55;;;;;;;-2.98;95.82;101545.00;5095872;28;20028;-72
2022/11/22 11:08:37;;;;;;;16.25;9.52;;;;;;;-2.99;95.57;101538.09;5095549;28;20024;-75
2022/11/22 11:11:03;;;;;;;11.90;7.97;;;;;;;-3.00;95.02;101536.41;5110759;28;20099;-73
2022/11/22 11:13:35;;;;;;;21.42;8.73;;;;;;;-2.95;96.19;101534.47;5099807;28;20380;-73
2022/11/22 11:16:30;;;;;;;14.38;8.18;;;;;;;-2.84;95.88;101536.69;5095909;28;20360;-72
2022/11/22 11:19:15;;;;;;;15.07;7.95;;;;;;;-2.86;94.68;101536.75;5095668;28;20032;-74
2022/11/22 11:21:41;;;;;;;12.80;7.07;;;;;;;-2.83;94.47;101538.38;5087224;28;20055;-74
2022/11/22 11:24:14;;;;;;;15.77;7.20;;;;;;;-2.77;94.10;101539.91;5095383;28;20019;-73
2022/11/22 11:26:42;;;;;;;14.98;7.53;;;;;;;-2.73;94.91;101539.72;5095293;28;20034;-71
2022/11/22 11:29:18;;;;;;;12.68;7.45;;;;;;;-2.73;93.53;101555.34;5077150;28;20039;-72
2022/11/22 11:31:46;;;;;;;15.68;7.88;;;;;;;-2.85;94.12;101540.19;5095291;28;20036;-73
2022/11/22 11:34:21;;;;;;;13.15;7.35;;;;;;;-2.85;93.68;101542.81;5095230;28;20114;-73
2022/11/22 11:36:48;;;;;;;13.23;6.65;;;;;;;-2.88;93.61;101546.38;5095307;28;20020;-74
2022/11/22 11:39:41;;;;;;;10.98;7.63;;;;;;;-2.82;93.77;101540.94;5094888;28;20036;-72
2022/11/22 11:42:22;;;;;;;9.32;6.40;;;;;;;-2.79;93.63;101544.31;5094352;28;20073;-74
2022/11/22 11:44:48;;;;;;;17.20;7.65;;;;;;;-2.78;93.18;101548.63;5095190;28;20059;-73
2022/11/22 11:47:19;;;;;;;11.23;8.10;;;;;;;-2.78;93.11;101539.03;5095230;28;20165;-74
2022/11/22 11:49:51;;;;;;;10.88;6.72;;;;;;;-2.87;92.87;101537.66;5094748;28;20512;-73
2022/11/22 11:52:22;;;;;;;12.15;6.63;;;;;;;-2.75;92.73;101544.16;5094699;28;20518;-73
2022/11/22 11:54:56;;;;;;;11.00;7.60;;;;;;;-2.67;92.31;101549.91;5094971;28;20378;-73
2022/11/22 11:57:27;;;;;;;12.70;7.05;;;;;;;-2.64;91.61;101548.94;5094788;28;20035;-73
2022/11/22 11:59:56;;;;;;;10.85;6.25;;;;;;;-2.68;90.87;101548.22;5094522;28;20043;-72
2022/11/22 12:02:22;;;;;;;10.50;5.65;;;;;;;-2.70;91.16;101539.59;5094991;28;20028;-76
2022/11/22 12:05:00;;;;;;;7.55;5.13;;;;;;;-2.68;90.55;101537.78;5094403;28;20371;-72
2022/11/22 12:07:32;;;;;;;8.77;5.72;;;;;;;-2.71;90.01;101532.69;5094459;28;20379;-73
2022/11/22 12:09:58;;;;;;;7.10;4.90;;;;;;;-2.69;90.54;101538.69;5094740;28;20500;-74
2022/11/22 12:12:48;;;;;;;8.53;5.47;;;;;;;-2.70;90.15;101536.13;5094918;28;20064;-73
2022/11/22 12:15:27;;;;;;;7.57;4.90;;;;;;;-2.74;89.99;101539.78;5095251;28;20035;-73
2022/11/22 12:18:10;;;;;;;9.48;5.57;;;;;;;-2.70;89.26;101538.75;5095890;28;20039;-75
2022/11/22 12:20:50;;;;;;;7.82;5.32;;;;;;;-2.71;89.69;101537.03;5095211;28;20033;-74
2022/11/22 12:23:37;;;;;;;9.00;5.75;;;;;;;-2.65;89.94;101539.41;5094412;28;20027;-73